createdAt,value
2018-09-30T00:00:53.195Z,99.99
2018-09-30T00:01:53.221Z,99.99
2018-09-30T00:02:53.202Z,99.99
2018-09-30T00:03:53.214Z,99.99
2018-09-30T00:04:53.225Z,99.99
2018-09-30T00:05:53.203Z,99.99
2018-09-30T00:06:53.207Z,99.99
2018-09-30T00:07:53.177Z,99.99
2018-09-30T00:08:53.146Z,99.99
2018-09-30T00:09:53.140Z,99.99
2018-09-30T00:10:53.134Z,99.99
2018-09-30T00:11:53.126Z,99.99
2018-09-30T00:12:53.127Z,99.99
2018-09-30T00:13:53.133Z,99.99
2018-09-30T00:14:53.111Z,99.99
2018-09-30T00:15:53.107Z,99.99
2018-09-30T00:16:53.100Z,99.99
2018-09-30T00:17:53.093Z,99.99
2018-09-30T00:18:53.088Z,99.99
2018-09-30T00:19:53.081Z,99.99
2018-09-30T00:20:53.075Z,99.99
2018-09-30T00:21:53.066Z,99.99
2018-09-30T00:22:53.065Z,99.99
2018-09-30T00:23:53.058Z,99.99
2018-09-30T00:24:53.055Z,99.99
2018-09-30T00:25:53.048Z,99.99
2018-09-30T00:26:53.049Z,99.99
2018-09-30T00:27:53.041Z,99.99
2018-09-30T00:28:53.034Z,99.99
2018-09-30T00:29:53.026Z,99.99
2018-09-30T00:30:53.018Z,99.99
2018-09-30T00:31:53.016Z,99.99
2018-09-30T00:32:53.008Z,99.99
2018-09-30T00:33:53.003Z,99.99
2018-09-30T00:34:52.997Z,99.99
2018-09-30T00:35:52.991Z,99.99
2018-09-30T00:36:52.986Z,99.99
2018-09-30T00:37:52.984Z,99.99
2018-09-30T00:38:52.976Z,99.99
2018-09-30T00:39:52.970Z,99.99
2018-09-30T00:40:52.965Z,99.99
2018-09-30T00:41:52.960Z,99.99
2018-09-30T00:42:52.955Z,99.99
2018-09-30T00:43:52.950Z,99.99
2018-09-30T00:44:52.943Z,98.59
2018-09-30T00:45:52.940Z,98.69
2018-09-30T00:46:52.935Z,97.17
2018-09-30T00:47:52.931Z,97.64
2018-09-30T00:48:52.928Z,96.98
2018-09-30T00:49:52.918Z,97.55
2018-09-30T00:50:52.913Z,97.64
2018-09-30T00:51:52.908Z,98.21
2018-09-30T00:52:52.902Z,99.44
2018-09-30T00:53:52.893Z,98.92
2018-09-30T00:54:52.894Z,97.78
2018-09-30T00:55:52.888Z,96.50
2018-09-30T00:56:52.885Z,95.94
2018-09-30T00:57:52.877Z,95.36
2018-09-30T00:58:52.874Z,94.70
2018-09-30T00:59:52.871Z,94.51
2018-09-30T01:00:52.864Z,93.56
2018-09-30T01:01:52.859Z,92.61
2018-09-30T01:02:52.854Z,94.13
2018-09-30T01:03:52.847Z,95.08
2018-09-30T01:04:52.847Z,95.94
2018-09-30T01:05:52.841Z,96.41
2018-09-30T01:06:52.835Z,96.69
2018-09-30T01:07:52.829Z,95.36
2018-09-30T01:08:52.825Z,93.56
2018-09-30T01:09:52.821Z,91.75
2018-09-30T01:10:52.816Z,91.47
2018-09-30T01:11:52.811Z,91.09
2018-09-30T01:12:52.812Z,91.09
2018-09-30T01:13:52.799Z,90.61
2018-09-30T01:14:52.798Z,90.23
2018-09-30T01:15:52.793Z,89.00
2018-09-30T01:16:52.794Z,89.09
2018-09-30T01:17:52.785Z,88.95
2018-09-30T01:18:52.776Z,88.53
2018-09-30T01:19:52.773Z,87.05
2018-09-30T01:20:52.766Z,86.47
2018-09-30T01:21:52.762Z,86.86
2018-09-30T01:22:52.760Z,87.14
2018-09-30T01:23:52.759Z,86.10
2018-09-30T01:24:52.757Z,84.39
2018-09-30T01:25:52.749Z,84.67
2018-09-30T01:26:52.739Z,84.48
2018-09-30T01:27:52.739Z,83.82
2018-09-30T01:28:52.733Z,83.15
2018-09-30T01:29:52.727Z,84.10
2018-09-30T01:30:52.738Z,83.72
2018-09-30T01:31:52.743Z,83.82
2018-09-30T01:32:52.715Z,83.72
2018-09-30T01:33:52.711Z,83.15
2018-09-30T01:34:52.705Z,83.15
2018-09-30T01:35:52.704Z,83.34
2018-09-30T01:36:52.695Z,83.91
2018-09-30T01:37:52.690Z,83.91
2018-09-30T01:38:52.691Z,83.53
2018-09-30T01:39:52.703Z,83.72
2018-09-30T01:40:52.681Z,84.39
2018-09-30T01:41:52.687Z,84.10
2018-09-30T01:42:52.671Z,84.86
2018-09-30T01:43:52.669Z,84.20
2018-09-30T01:44:52.662Z,84.01
2018-09-30T01:45:52.659Z,83.62
2018-09-30T01:46:52.659Z,82.96
2018-09-30T01:47:52.650Z,83.06
2018-09-30T01:48:52.646Z,82.77
2018-09-30T01:49:52.643Z,82.77
2018-09-30T01:50:52.638Z,83.53
2018-09-30T01:51:52.635Z,83.62
2018-09-30T01:52:52.630Z,84.10
2018-09-30T01:53:52.633Z,84.29
2018-09-30T01:54:52.622Z,84.95
2018-09-30T01:55:52.619Z,85.58
2018-09-30T01:56:52.616Z,86.57
2018-09-30T01:57:52.606Z,87.48
2018-09-30T01:58:52.605Z,87.95
2018-09-30T01:59:52.601Z,88.43
2018-09-30T02:00:52.610Z,89.09
2018-09-30T02:01:52.592Z,89.57
2018-09-30T02:02:52.587Z,89.00
2018-09-30T02:03:52.582Z,89.86
2018-09-30T02:04:52.579Z,91.38
2018-09-30T02:05:52.574Z,91.56
2018-09-30T02:06:52.571Z,92.42
2018-09-30T02:07:52.565Z,92.42
2018-09-30T02:08:52.560Z,93.13
2018-09-30T02:09:52.557Z,93.04
2018-09-30T02:10:52.551Z,93.32
2018-09-30T02:11:52.548Z,93.32
2018-09-30T02:12:52.548Z,92.94
2018-09-30T02:13:52.542Z,93.89
2018-09-30T02:14:52.534Z,94.27
2018-09-30T02:15:52.530Z,93.99
2018-09-30T02:16:52.525Z,94.37
2018-09-30T02:17:52.526Z,94.37
2018-09-30T02:18:52.517Z,95.03
2018-09-30T02:19:52.511Z,96.74
2018-09-30T02:20:52.507Z,96.45
2018-09-30T02:21:52.503Z,96.36
2018-09-30T02:22:52.499Z,96.83
2018-09-30T02:23:52.495Z,97.12
2018-09-30T02:24:52.490Z,97.12
2018-09-30T02:25:52.483Z,97.22
2018-09-30T02:26:52.484Z,97.60
2018-09-30T02:27:52.480Z,96.83
2018-09-30T02:28:52.472Z,97.41
2018-09-30T02:29:52.466Z,97.22
2018-09-30T02:30:52.462Z,97.78
2018-09-30T02:31:52.459Z,98.40
2018-09-30T02:32:52.453Z,99.35
2018-09-30T02:33:52.448Z,99.54
2018-09-30T02:34:52.451Z,99.35
2018-09-30T02:35:52.448Z,98.35
2018-09-30T02:36:52.435Z,98.54
2018-09-30T02:37:52.429Z,98.45
2018-09-30T02:38:52.425Z,98.02
2018-09-30T02:39:52.426Z,98.68
2018-09-30T02:40:52.417Z,98.40
2018-09-30T02:41:52.411Z,98.11
2018-09-30T02:42:52.405Z,99.54
2018-09-30T02:43:52.401Z,99.30
2018-09-30T02:44:52.397Z,98.49
2018-09-30T02:45:52.393Z,98.11
2018-09-30T02:46:52.393Z,97.31
2018-09-30T02:47:52.384Z,97.83
2018-09-30T02:48:52.379Z,97.64
2018-09-30T02:49:52.372Z,97.69
2018-09-30T02:50:52.378Z,98.35
2018-09-30T02:51:52.366Z,97.78
2018-09-30T02:52:52.364Z,98.16
2018-09-30T02:53:52.358Z,97.02
2018-09-30T02:54:52.349Z,95.89
2018-09-30T02:55:52.346Z,95.70
2018-09-30T02:56:52.341Z,95.51
2018-09-30T02:57:52.343Z,94.18
2018-09-30T02:58:52.331Z,93.51
2018-09-30T02:59:52.329Z,91.80
2018-09-30T03:00:52.320Z,90.90
2018-09-30T03:01:52.315Z,90.90
2018-09-30T03:02:52.317Z,91.19
2018-09-30T03:03:52.309Z,90.42
2018-09-30T03:04:52.300Z,90.90
2018-09-30T03:05:52.298Z,91.28
2018-09-30T03:06:52.293Z,91.19
2018-09-30T03:07:52.290Z,90.99
2018-09-30T03:08:52.327Z,90.80
2018-09-30T03:09:52.287Z,91.33
2018-09-30T03:10:52.281Z,91.61
2018-09-30T03:11:52.282Z,91.71
2018-09-30T03:12:52.266Z,91.33
2018-09-30T03:13:52.266Z,91.04
2018-09-30T03:14:52.262Z,90.95
2018-09-30T03:15:52.271Z,90.80
2018-09-30T03:16:52.247Z,90.66
2018-09-30T03:17:52.243Z,91.28
2018-09-30T03:18:52.238Z,91.28
2018-09-30T03:19:52.232Z,90.42
2018-09-30T03:20:52.229Z,89.47
2018-09-30T03:21:52.224Z,88.71
2018-09-30T03:22:52.220Z,88.90
2018-09-30T03:23:52.215Z,88.90
2018-09-30T03:24:52.215Z,88.15
2018-09-30T03:25:52.206Z,88.05
2018-09-30T03:26:52.201Z,87.67
2018-09-30T03:27:52.195Z,86.24
2018-09-30T03:28:52.191Z,85.39
2018-09-30T03:29:52.187Z,84.44
2018-09-30T03:30:52.183Z,84.20
2018-09-30T03:31:52.180Z,83.25
2018-09-30T03:32:52.175Z,83.15
2018-09-30T03:33:52.180Z,83.72
2018-09-30T03:34:52.166Z,82.49
2018-09-30T03:35:52.160Z,81.54
2018-09-30T03:36:52.154Z,81.54
2018-09-30T03:37:52.152Z,80.87
2018-09-30T03:38:52.169Z,80.87
2018-09-30T03:39:52.144Z,80.49
2018-09-30T03:40:52.155Z,80.68
2018-09-30T03:41:52.136Z,80.77
2018-09-30T03:42:52.127Z,81.35
2018-09-30T03:43:52.126Z,81.44
2018-09-30T03:44:52.122Z,82.29
2018-09-30T03:45:52.119Z,82.29
2018-09-30T03:46:52.112Z,82.87
2018-09-30T03:47:52.106Z,83.53
2018-09-30T03:48:52.102Z,83.06
2018-09-30T03:49:52.099Z,84.72
2018-09-30T03:50:52.098Z,85.77
2018-09-30T03:51:52.090Z,85.39
2018-09-30T03:52:52.086Z,83.68
2018-09-30T03:53:52.080Z,83.49
2018-09-30T03:54:52.077Z,83.06
2018-09-30T03:55:52.080Z,83.25
2018-09-30T03:56:52.069Z,83.39
2018-09-30T03:57:52.072Z,83.59
2018-09-30T03:58:52.060Z,84.25
2018-09-30T03:59:54.715Z,83.39
2018-09-30T04:00:52.052Z,83.01
2018-09-30T04:01:52.047Z,82.58
2018-09-30T04:02:52.044Z,82.01
2018-09-30T04:03:52.039Z,81.63
2018-09-30T04:04:52.037Z,82.01
2018-09-30T04:05:52.033Z,81.63
2018-09-30T04:06:52.031Z,81.82
2018-09-30T04:07:52.023Z,81.35
2018-09-30T04:08:52.015Z,80.77
2018-09-30T04:09:52.038Z,80.40
2018-09-30T04:10:52.012Z,80.77
2018-09-30T04:11:52.004Z,80.68
2018-09-30T04:12:52.000Z,81.54
2018-09-30T04:13:51.993Z,81.35
2018-09-30T04:14:51.991Z,81.54
2018-09-30T04:15:51.985Z,82.20
2018-09-30T04:16:52.060Z,82.07
2018-09-30T04:17:51.978Z,83.30
2018-09-30T04:18:51.972Z,84.34
2018-09-30T04:19:51.970Z,84.44
2018-09-30T04:20:51.963Z,85.49
2018-09-30T04:21:51.960Z,85.01
2018-09-30T04:22:51.957Z,84.44
2018-09-30T04:23:51.953Z,84.16
2018-09-30T04:24:51.967Z,85.30
2018-09-30T04:25:51.947Z,85.20
2018-09-30T04:26:51.950Z,85.77
2018-09-30T04:27:51.935Z,85.77
2018-09-30T04:28:51.930Z,86.53
2018-09-30T04:29:51.929Z,86.63
2018-09-30T04:30:51.917Z,86.91
2018-09-30T04:31:51.920Z,86.72
2018-09-30T04:32:51.929Z,86.24
2018-09-30T04:33:51.907Z,86.43
2018-09-30T04:34:51.905Z,87.38
2018-09-30T04:35:51.898Z,87.19
2018-09-30T04:36:51.900Z,85.58
2018-09-30T04:37:51.890Z,85.01
2018-09-30T04:38:51.886Z,83.87
2018-09-30T04:39:51.882Z,83.30
2018-09-30T04:40:51.874Z,82.01
2018-09-30T04:41:51.881Z,81.35
2018-09-30T04:42:51.876Z,81.06
2018-09-30T04:43:51.870Z,80.68
2018-09-30T04:44:51.860Z,80.40
2018-09-30T04:45:51.854Z,80.58
2018-09-30T04:46:51.850Z,80.40
2018-09-30T04:47:51.845Z,80.49
2018-09-30T04:48:51.842Z,81.35
2018-09-30T04:49:51.851Z,81.92
2018-09-30T04:50:51.831Z,82.01
2018-09-30T04:51:51.828Z,81.35
2018-09-30T04:52:51.827Z,80.58
2018-09-30T04:53:51.818Z,79.83
2018-09-30T04:54:51.816Z,80.68
2018-09-30T04:55:51.812Z,80.49
2018-09-30T04:56:51.807Z,80.21
2018-09-30T04:57:51.801Z,79.92
2018-09-30T04:58:51.798Z,80.11
2018-09-30T04:59:51.796Z,79.83
2018-09-30T05:00:51.789Z,79.25
2018-09-30T05:01:51.785Z,78.69
2018-09-30T05:02:51.779Z,78.50
2018-09-30T05:03:51.782Z,77.73
2018-09-30T05:04:51.774Z,77.68
2018-09-30T05:05:51.844Z,77.55
2018-09-30T05:06:51.763Z,78.11
2018-09-30T05:07:51.761Z,78.69
2018-09-30T05:08:51.757Z,77.58
2018-09-30T05:09:51.751Z,77.26
2018-09-30T05:10:51.747Z,77.55
2018-09-30T05:11:51.743Z,77.83
2018-09-30T05:12:51.738Z,78.40
2018-09-30T05:13:51.733Z,78.69
2018-09-30T05:14:51.731Z,78.50
2018-09-30T05:15:51.802Z,78.50
2018-09-30T05:16:51.720Z,78.50
2018-09-30T05:17:51.717Z,78.30
2018-09-30T05:18:51.714Z,78.50
2018-09-30T05:19:51.707Z,78.50
2018-09-30T05:20:51.707Z,78.30
2018-09-30T05:21:51.700Z,78.97
2018-09-30T05:22:51.696Z,78.30
2018-09-30T05:23:51.699Z,77.55
2018-09-30T05:24:51.688Z,76.25
2018-09-30T05:25:51.689Z,75.30
2018-09-30T05:26:51.693Z,75.49
2018-09-30T05:27:51.676Z,75.78
2018-09-30T05:28:51.672Z,74.26
2018-09-30T05:29:51.667Z,73.21
2018-09-30T05:30:51.694Z,72.96
2018-09-30T05:31:51.657Z,72.67
2018-09-30T05:32:51.656Z,72.96
2018-09-30T05:33:51.650Z,72.86
2018-09-30T05:34:51.784Z,73.15
2018-09-30T05:35:51.661Z,73.25
2018-09-30T05:36:51.639Z,72.77
2018-09-30T05:37:51.635Z,72.67
2018-09-30T05:38:51.630Z,72.77
2018-09-30T05:39:51.627Z,73.15
2018-09-30T05:40:51.630Z,73.72
2018-09-30T05:41:51.620Z,74.39
2018-09-30T05:42:51.664Z,75.11
2018-09-30T05:43:51.613Z,75.02
2018-09-30T05:44:51.608Z,76.06
2018-09-30T05:45:51.677Z,76.35
2018-09-30T05:46:51.600Z,76.06
2018-09-30T05:47:51.611Z,76.82
2018-09-30T05:48:51.594Z,77.77
2018-09-30T05:49:51.589Z,76.25
2018-09-30T05:50:51.589Z,75.40
2018-09-30T05:51:53.279Z,75.30
2018-09-30T05:52:51.581Z,74.73
2018-09-30T05:53:51.571Z,74.63
2018-09-30T05:54:51.572Z,74.16
2018-09-30T05:55:51.586Z,75.49
2018-09-30T05:56:51.566Z,74.92
2018-09-30T05:57:51.610Z,75.30
2018-09-30T05:58:51.562Z,74.82
2018-09-30T05:59:51.554Z,74.16
2018-09-30T06:00:51.550Z,73.82
2018-09-30T06:01:51.548Z,72.96
2018-09-30T06:02:51.610Z,72.67
2018-09-30T06:03:51.581Z,72.11
2018-09-30T06:04:51.544Z,72.30
2018-09-30T06:05:51.534Z,72.01
2018-09-30T06:06:51.529Z,72.11
2018-09-30T06:07:51.522Z,71.82
2018-09-30T06:08:51.569Z,72.20
2018-09-30T06:09:51.512Z,72.20
2018-09-30T06:10:51.511Z,72.49
2018-09-30T06:11:51.507Z,71.91
2018-09-30T06:12:51.502Z,70.77
2018-09-30T06:13:51.538Z,69.67
2018-09-30T06:14:51.515Z,68.90
2018-09-30T06:15:51.497Z,69.19
2018-09-30T06:16:51.490Z,67.95
2018-09-30T06:17:51.492Z,67.47
2018-09-30T06:18:51.488Z,67.38
2018-09-30T06:19:51.479Z,66.56
2018-09-30T06:20:51.476Z,66.27
2018-09-30T06:21:51.475Z,67.03
2018-09-30T06:22:51.469Z,66.75
2018-09-30T06:23:51.463Z,66.75
2018-09-30T06:24:51.464Z,66.75
2018-09-30T06:25:51.463Z,65.64
2018-09-30T06:26:51.462Z,63.51
2018-09-30T06:27:51.458Z,60.33
2018-09-30T06:28:51.449Z,58.86
2018-09-30T06:29:51.447Z,55.93
2018-09-30T06:30:51.444Z,53.30
2018-09-30T06:31:51.452Z,51.42
2018-09-30T06:32:51.439Z,52.11
2018-09-30T06:33:51.438Z,49.84
2018-09-30T06:34:51.433Z,48.23
2018-09-30T06:35:51.435Z,46.91
2018-09-30T06:36:51.433Z,47.68
2018-09-30T06:37:51.439Z,46.14
2018-09-30T06:38:53.233Z,45.50
2018-09-30T06:39:51.433Z,45.68
2018-09-30T06:40:51.431Z,45.21
2018-09-30T06:41:51.432Z,45.32
2018-09-30T06:42:51.432Z,44.24
2018-09-30T06:43:51.435Z,44.17
2018-09-30T06:44:51.451Z,44.17
2018-09-30T06:45:51.437Z,43.62
2018-09-30T06:46:51.441Z,43.16
2018-09-30T06:47:51.440Z,42.30
2018-09-30T06:48:51.446Z,41.43
2018-09-30T06:49:51.448Z,41.16
2018-09-30T06:50:51.475Z,41.06
2018-09-30T06:51:51.454Z,40.11
2018-09-30T06:52:51.468Z,40.11
2018-09-30T06:53:51.465Z,40.49
2018-09-30T06:54:51.471Z,40.08
2018-09-30T06:55:51.513Z,39.03
2018-09-30T06:56:51.490Z,39.22
2018-09-30T06:57:51.509Z,39.33
2018-09-30T06:58:51.506Z,39.36
2018-09-30T06:59:51.510Z,38.51
2018-09-30T07:00:51.520Z,38.68
2018-09-30T07:01:51.503Z,38.51
2018-09-30T07:02:51.536Z,38.22
2018-09-30T07:03:51.548Z,38.10
2018-09-30T07:04:51.564Z,39.24
2018-09-30T07:05:51.550Z,39.24
2018-09-30T07:06:51.560Z,38.97
2018-09-30T07:07:51.548Z,38.49
2018-09-30T07:08:51.573Z,37.81
2018-09-30T07:09:51.601Z,37.74
2018-09-30T07:10:51.616Z,37.64
2018-09-30T07:11:51.554Z,36.87
2018-09-30T07:12:51.561Z,36.89
2018-09-30T07:13:51.561Z,37.08
2018-09-30T07:14:51.567Z,36.77
2018-09-30T07:15:51.572Z,37.02
2018-09-30T07:16:51.597Z,37.97
2018-09-30T07:17:51.592Z,38.35
2018-09-30T07:18:51.597Z,38.54
2018-09-30T07:19:51.598Z,38.84
2018-09-30T07:20:51.603Z,38.84
2018-09-30T07:21:51.614Z,38.85
2018-09-30T07:22:51.719Z,38.18
2018-09-30T07:23:51.629Z,38.18
2018-09-30T07:24:51.626Z,38.47
2018-09-30T07:25:51.632Z,38.68
2018-09-30T07:26:51.640Z,37.43
2018-09-30T07:27:51.654Z,37.24
2018-09-30T07:28:51.654Z,37.52
2018-09-30T07:29:51.663Z,36.39
2018-09-30T07:30:51.758Z,35.81
2018-09-30T07:31:58.821Z,35.83
2018-09-30T07:33:44.631Z,34.48
2018-09-30T07:34:44.926Z,34.88
2018-09-30T07:36:38.516Z,34.30
2018-09-30T07:37:40.989Z,34.21
2018-09-30T07:39:32.054Z,34.00
2018-09-30T07:40:31.419Z,34.58
2018-09-30T07:42:24.398Z,34.86
2018-09-30T07:43:24.367Z,34.67
2018-09-30T07:45:17.220Z,34.32
2018-09-30T07:46:17.235Z,34.13
2018-09-30T07:48:10.193Z,34.44
2018-09-30T07:49:10.302Z,33.47
2018-09-30T07:50:10.191Z,32.92
2018-09-30T07:51:10.397Z,32.43
2018-09-30T07:52:10.495Z,32.14
2018-09-30T07:53:10.240Z,31.85
2018-09-30T07:54:10.268Z,30.04
2018-09-30T07:55:10.343Z,30.52
2018-09-30T07:56:10.243Z,30.63
2018-09-30T07:57:10.249Z,30.35
2018-09-30T07:58:10.288Z,30.63
2018-09-30T07:59:10.282Z,30.22
2018-09-30T08:00:10.276Z,30.32
2018-09-30T08:01:10.279Z,29.74
2018-09-30T08:02:10.287Z,30.04
2018-09-30T08:03:10.300Z,29.66
2018-09-30T08:04:10.309Z,29.28
2018-09-30T08:05:10.318Z,29.47
2018-09-30T08:06:10.331Z,29.38
2018-09-30T08:07:10.358Z,29.93
2018-09-30T08:08:10.347Z,30.33
2018-09-30T08:09:10.356Z,29.96
2018-09-30T08:10:10.365Z,29.49
2018-09-30T08:11:10.375Z,28.88
2018-09-30T08:12:10.385Z,29.19
2018-09-30T08:13:10.401Z,28.81
2018-09-30T08:14:10.414Z,27.66
2018-09-30T08:15:10.421Z,28.43
2018-09-30T08:16:10.426Z,28.78
2018-09-30T08:17:10.481Z,29.91
2018-09-30T08:18:10.448Z,30.88
2018-09-30T08:19:10.461Z,31.27
2018-09-30T08:20:10.467Z,31.57
2018-09-30T08:21:10.478Z,30.88
2018-09-30T08:22:10.490Z,30.69
2018-09-30T08:23:10.501Z,30.70
2018-09-30T08:24:10.594Z,30.32
2018-09-30T08:25:10.576Z,30.04
2018-09-30T08:26:10.537Z,28.78
2018-09-30T08:27:10.541Z,28.48
2018-09-30T08:28:10.551Z,29.35
2018-09-30T08:29:10.609Z,29.91
2018-09-30T08:30:10.576Z,29.64
2018-09-30T08:31:10.588Z,29.56
2018-09-30T08:32:10.596Z,30.24
2018-09-30T08:33:10.606Z,29.94
2018-09-30T08:34:10.629Z,29.38
2018-09-30T08:35:10.631Z,29.86
2018-09-30T08:36:10.638Z,29.39
2018-09-30T08:37:10.647Z,28.64
2018-09-30T08:38:10.666Z,27.86
2018-09-30T08:39:10.679Z,28.18
2018-09-30T08:40:10.694Z,27.76
2018-09-30T08:41:10.706Z,28.17
2018-09-30T08:42:10.712Z,27.49
2018-09-30T08:43:10.723Z,27.50
2018-09-30T08:44:10.785Z,26.43
2018-09-30T08:45:10.750Z,26.12
2018-09-30T08:46:10.760Z,26.70
2018-09-30T08:47:10.777Z,26.51
2018-09-30T08:48:10.785Z,26.14
2018-09-30T08:49:10.832Z,26.34
2018-09-30T08:50:10.810Z,25.84
2018-09-30T08:51:10.825Z,26.34
2018-09-30T08:52:10.837Z,26.32
2018-09-30T08:53:10.848Z,26.14
2018-09-30T08:54:10.862Z,25.94
2018-09-30T08:55:10.873Z,25.92
2018-09-30T08:56:10.950Z,25.93
2018-09-30T08:57:10.900Z,26.14
2018-09-30T08:58:10.916Z,26.41
2018-09-30T08:59:10.930Z,27.10
2018-09-30T09:00:10.941Z,26.20
2018-09-30T09:01:10.955Z,26.89
2018-09-30T09:02:10.968Z,27.19
2018-09-30T09:03:11.061Z,27.28
2018-09-30T09:04:10.997Z,26.30
2018-09-30T09:05:11.015Z,26.40
2018-09-30T09:06:11.023Z,26.30
2018-09-30T09:07:11.040Z,25.89
2018-09-30T09:08:11.050Z,26.97
2018-09-30T09:09:11.065Z,27.53
2018-09-30T09:10:11.076Z,27.51
2018-09-30T09:11:11.089Z,28.62
2018-09-30T09:12:11.105Z,29.41
2018-09-30T09:13:11.118Z,29.49
2018-09-30T09:14:11.139Z,30.34
2018-09-30T09:15:11.146Z,31.60
2018-09-30T09:16:11.162Z,31.69
2018-09-30T09:17:11.225Z,32.38
2018-09-30T09:18:11.217Z,32.09
2018-09-30T09:19:11.375Z,31.69
2018-09-30T09:20:11.243Z,32.57
2018-09-30T09:21:11.263Z,31.98
2018-09-30T09:22:11.309Z,31.88
2018-09-30T09:23:11.336Z,31.87
2018-09-30T09:24:22.935Z,32.25
2018-09-30T09:25:11.530Z,32.34
2018-09-30T09:26:11.303Z,32.54
2018-09-30T09:27:11.353Z,32.44
2018-09-30T09:28:12.600Z,31.96
2018-09-30T09:29:11.354Z,31.75
2018-09-30T09:30:11.352Z,32.23
2018-09-30T09:31:13.269Z,32.12
2018-09-30T09:32:11.395Z,32.60
2018-09-30T09:33:11.648Z,32.43
2018-09-30T09:34:11.682Z,32.21
2018-09-30T09:35:11.500Z,32.60
2018-09-30T09:36:11.567Z,33.08
2018-09-30T09:37:11.588Z,33.08
2018-09-30T09:38:15.490Z,33.20
2018-09-30T09:39:19.598Z,32.98
2018-09-30T09:41:17.392Z,33.10
2018-09-30T09:42:10.574Z,32.92
2018-09-30T09:44:05.603Z,32.46
2018-09-30T09:45:02.317Z,32.44
2018-09-30T09:46:55.504Z,31.29
2018-09-30T09:47:55.505Z,31.77
2018-09-30T09:49:49.334Z,33.23
2018-09-30T09:50:49.436Z,33.21
2018-09-30T09:51:47.952Z,32.34
2018-09-30T09:52:47.956Z,32.71
2018-09-30T09:53:47.969Z,34.27
2018-09-30T09:54:47.984Z,33.58
2018-09-30T09:55:47.999Z,32.64
2018-09-30T09:56:48.011Z,32.34
2018-09-30T09:57:48.028Z,32.56
2018-09-30T09:58:48.097Z,32.07
2018-09-30T09:59:48.054Z,32.17
2018-09-30T10:00:48.066Z,32.17
2018-09-30T10:01:49.620Z,32.25
2018-09-30T10:02:49.087Z,31.96
2018-09-30T10:03:50.240Z,32.06
2018-09-30T10:04:48.461Z,32.17
2018-09-30T10:05:48.251Z,32.46
2018-09-30T10:06:48.138Z,33.13
2018-09-30T10:09:10.123Z,32.67
2018-09-30T10:11:24.619Z,31.67
2018-09-30T10:12:32.064Z,32.23
2018-09-30T10:14:19.200Z,32.82
2018-09-30T10:15:21.095Z,32.64
2018-09-30T10:16:20.980Z,32.34
2018-09-30T10:17:18.967Z,32.34
2018-09-30T10:18:20.123Z,33.12
2018-09-30T10:19:34.949Z,32.92
2018-09-30T10:21:16.622Z,32.54
2018-09-30T10:22:14.938Z,31.96
2018-09-30T10:23:15.013Z,32.92
2018-09-30T10:24:15.391Z,32.84
2018-09-30T10:25:39.929Z,31.96
2018-09-30T10:26:14.925Z,32.54
2018-09-30T10:27:14.775Z,32.62
2018-09-30T10:28:17.824Z,32.54
2018-09-30T10:29:24.711Z,33.12
2018-09-30T10:30:22.953Z,33.21
2018-09-30T10:32:08.887Z,33.02
2018-09-30T10:33:08.916Z,33.59
2018-09-30T10:35:02.332Z,35.24
2018-09-30T10:36:01.959Z,34.37
2018-09-30T10:37:54.552Z,33.73
2018-09-30T10:38:57.436Z,34.01
2018-09-30T10:43:10.881Z,32.90
2018-09-30T10:44:03.914Z,34.35
2018-09-30T10:45:56.941Z,34.45
2018-09-30T10:46:56.983Z,34.75
2018-09-30T10:47:56.815Z,33.89
2018-09-30T10:48:56.597Z,34.67
2018-09-30T10:49:57.106Z,34.09
2018-09-30T10:50:56.585Z,33.73
2018-09-30T10:51:56.652Z,33.25
2018-09-30T10:54:37.041Z,32.95
2018-09-30T10:55:37.290Z,32.57
2018-09-30T10:57:32.136Z,31.99
2018-09-30T10:58:30.447Z,31.72
2018-09-30T11:00:23.650Z,31.91
2018-09-30T11:01:23.581Z,31.22
2018-09-30T11:03:16.598Z,31.99
2018-09-30T11:04:23.664Z,32.97
2018-09-30T11:06:09.524Z,32.29
2018-09-30T11:07:16.529Z,32.39
2018-09-30T11:09:02.281Z,32.17
2018-09-30T11:10:02.334Z,32.36
2018-09-30T11:11:55.142Z,32.73
2018-09-30T11:12:55.135Z,33.20
2018-09-30T11:13:55.181Z,34.46
2018-09-30T11:14:55.168Z,34.86
2018-09-30T11:15:55.211Z,32.82
2018-09-30T11:16:55.146Z,32.92
2018-09-30T11:17:55.158Z,33.50
2018-09-30T11:18:55.178Z,34.17
2018-09-30T11:19:55.177Z,34.46
2018-09-30T11:20:55.177Z,34.27
2018-09-30T11:21:55.180Z,33.42
2018-09-30T11:22:55.197Z,33.21
2018-09-30T11:23:55.194Z,33.03
2018-09-30T11:24:55.197Z,34.48
2018-09-30T11:25:55.196Z,33.23
2018-09-30T11:26:55.209Z,32.47
2018-09-30T11:27:55.207Z,32.28
2018-09-30T11:28:55.218Z,32.67
2018-09-30T11:29:55.220Z,32.47
2018-09-30T11:30:55.226Z,32.36
2018-09-30T11:31:55.262Z,32.84
2018-09-30T11:32:55.234Z,33.31
2018-09-30T11:33:55.279Z,32.73
2018-09-30T11:34:55.248Z,32.64
2018-09-30T11:35:55.288Z,33.02
2018-09-30T11:36:55.255Z,33.50
2018-09-30T11:38:48.241Z,33.03
2018-09-30T11:39:48.169Z,31.96
2018-09-30T11:41:41.136Z,34.09
2018-09-30T11:42:41.110Z,32.94
2018-09-30T11:44:34.517Z,32.92
2018-09-30T11:45:34.473Z,33.21
2018-09-30T11:47:27.965Z,33.31
2018-09-30T11:48:27.903Z,32.44
2018-09-30T11:50:20.903Z,32.34
2018-09-30T11:51:28.958Z,32.84
2018-09-30T11:53:13.742Z,32.17
2018-09-30T11:54:13.716Z,32.17
2018-09-30T11:56:06.679Z,32.36
2018-09-30T11:57:06.712Z,32.07
2018-09-30T11:59:00.158Z,31.78
2018-09-30T12:00:00.114Z,31.21
2018-09-30T12:01:54.204Z,31.80
2018-09-30T12:02:54.071Z,30.83
2018-09-30T12:03:54.017Z,30.37
2018-09-30T12:06:19.802Z,31.40
2018-09-30T12:07:19.633Z,31.01
2018-09-30T12:08:19.736Z,31.70
2018-09-30T12:09:18.120Z,32.38
2018-09-30T12:10:18.048Z,32.28
2018-09-30T12:11:20.578Z,32.56
2018-09-30T12:12:18.050Z,32.65
2018-09-30T12:13:18.086Z,32.75
2018-09-30T12:14:18.078Z,31.98
2018-09-30T12:15:18.097Z,32.07
2018-09-30T12:16:18.166Z,31.69
2018-09-30T12:17:18.074Z,30.93
2018-09-30T12:18:20.667Z,31.51
2018-09-30T12:19:18.077Z,31.30
2018-09-30T12:20:19.703Z,30.35
2018-09-30T12:21:18.158Z,30.24
2018-09-30T12:22:20.189Z,30.83
2018-09-30T12:23:18.126Z,31.12
2018-09-30T12:24:20.184Z,30.66
2018-09-30T12:25:18.291Z,29.97
2018-09-30T12:26:20.131Z,30.07
2018-09-30T12:27:18.129Z,30.27
2018-09-30T12:28:18.181Z,30.08
2018-09-30T12:29:19.246Z,30.58
2018-09-30T12:32:56.870Z,29.41
2018-09-30T12:33:19.716Z,29.41
2018-09-30T12:34:34.385Z,28.63
2018-09-30T12:35:14.694Z,29.50
2018-09-30T12:36:17.302Z,29.61
2018-09-30T12:37:16.692Z,29.61
2018-09-30T12:38:14.630Z,29.71
2018-09-30T12:39:14.644Z,30.21
2018-09-30T12:40:14.584Z,30.29
2018-09-30T12:41:14.587Z,29.50
2018-09-30T12:42:14.657Z,29.69
2018-09-30T12:43:14.671Z,30.37
2018-09-30T12:44:14.629Z,29.77
2018-09-30T12:45:22.295Z,30.26
2018-09-30T12:46:14.760Z,30.34
2018-09-30T12:47:14.671Z,30.82
2018-09-30T12:48:14.608Z,31.41
2018-09-30T12:49:14.612Z,31.51
2018-09-30T12:50:14.625Z,31.30
2018-09-30T12:51:14.637Z,30.91
2018-09-30T12:52:16.258Z,30.24
2018-09-30T12:53:16.229Z,30.22
2018-09-30T12:54:14.641Z,30.90
2018-09-30T12:55:14.980Z,31.00
2018-09-30T12:56:14.745Z,31.30
2018-09-30T12:57:14.651Z,31.21
2018-09-30T12:58:14.686Z,31.69
2018-09-30T12:59:14.692Z,31.08
2018-09-30T13:00:22.902Z,31.85
2018-09-30T13:02:08.639Z,31.98
2018-09-30T13:03:08.870Z,32.65
2018-09-30T13:04:10.582Z,31.69
2018-09-30T13:06:02.525Z,31.70
2018-09-30T13:07:01.642Z,31.99
2018-09-30T13:08:54.560Z,32.95
2018-09-30T13:09:54.471Z,32.57
2018-09-30T13:11:47.374Z,33.17
2018-09-30T13:12:47.401Z,32.97
2018-09-30T13:14:40.439Z,32.78
2018-09-30T13:15:41.330Z,32.97
2018-09-30T13:17:34.075Z,32.86
2018-09-30T13:18:35.013Z,32.75
2018-09-30T13:20:27.412Z,33.51
2018-09-30T13:21:30.158Z,33.33
2018-09-30T13:23:20.970Z,34.77
2018-09-30T13:25:46.319Z,34.78
2018-09-30T13:26:41.496Z,34.50
2018-09-30T13:27:41.082Z,34.69
2018-09-30T13:28:42.108Z,34.69
2018-09-30T13:29:41.195Z,33.82
2018-09-30T13:30:41.886Z,33.15
2018-09-30T13:31:42.270Z,33.73
2018-09-30T13:32:41.926Z,33.44
2018-09-30T13:33:49.066Z,32.38
2018-09-30T13:34:44.955Z,33.45
2018-09-30T13:35:41.209Z,33.65
2018-09-30T13:36:55.231Z,33.45
2018-09-30T13:37:43.018Z,32.49
2018-09-30T13:38:51.526Z,32.76
2018-09-30T13:40:36.741Z,34.40